createdAt,value
2018-04-02T00:00:28.412Z,67.72
2018-04-02T00:02:56.695Z,68.30
2018-04-02T00:05:25.026Z,66.97
2018-04-02T00:07:54.411Z,71.15
2018-04-02T00:10:23.295Z,72.37
2018-04-02T00:12:51.630Z,71.80
2018-04-02T00:15:19.926Z,73.33
2018-04-02T00:17:48.466Z,76.73
2018-04-02T00:20:17.657Z,78.17
2018-04-02T00:22:46.774Z,83.27
2018-04-02T00:25:15.812Z,90.87
2018-04-02T00:27:44.110Z,88.40
2018-04-02T00:30:12.520Z,93.30
2018-04-02T00:32:41.647Z,94.75
2018-04-02T00:35:10.018Z,93.60
2018-04-02T00:37:38.300Z,101.80
2018-04-02T00:40:07.567Z,104.22
2018-04-02T00:42:36.637Z,97.10
2018-04-02T00:45:05.468Z,106.20
2018-04-02T00:47:33.751Z,106.93
2018-04-02T00:50:02.038Z,103.33
2018-04-02T00:52:30.383Z,106.40
2018-04-02T00:54:59.467Z,99.93
2018-04-02T00:57:28.603Z,100.63
2018-04-02T00:59:56.876Z,104.85
2018-04-02T01:02:25.137Z,120.47
2018-04-02T01:04:54.178Z,115.68
2018-04-02T01:07:22.498Z,108.43
2018-04-02T01:09:51.781Z,109.27
2018-04-02T01:12:20.068Z,113.70
2018-04-02T01:14:49.126Z,111.00
2018-04-02T01:17:17.476Z,111.80
2018-04-02T01:19:45.765Z,106.80
2018-04-02T01:22:14.192Z,119.47
2018-04-02T01:24:43.283Z,98.82
2018-04-02T01:27:12.332Z,110.00
2018-04-02T01:29:40.628Z,111.75
2018-04-02T01:32:08.929Z,95.90
2018-04-02T01:34:37.381Z,100.07
2018-04-02T01:37:06.368Z,102.47
2018-04-02T01:39:34.677Z,90.80
2018-04-02T01:42:02.943Z,96.47
2018-04-02T01:44:31.226Z,97.20
2018-04-02T01:46:59.528Z,98.80
2018-04-02T01:49:28.713Z,101.57
2018-04-02T01:51:57.734Z,102.32
2018-04-02T01:54:26.015Z,92.73
2018-04-02T01:56:54.565Z,96.80
2018-04-02T01:59:22.809Z,93.05
2018-04-02T02:01:51.776Z,96.23
2018-04-02T02:04:20.131Z,95.40
2018-04-02T02:06:48.680Z,93.40
2018-04-02T02:09:17.456Z,94.90
2018-04-02T02:11:45.828Z,91.53
2018-04-02T02:14:14.947Z,93.32
2018-04-02T02:16:43.382Z,92.37
2018-04-02T02:19:11.822Z,91.17
2018-04-02T02:21:41.141Z,97.77
2018-04-02T02:24:09.751Z,94.17
2018-04-02T02:26:38.128Z,91.37
2018-04-02T02:29:06.407Z,97.20
2018-04-02T02:31:34.696Z,94.97
2018-04-02T02:34:02.989Z,93.33
2018-04-02T02:36:31.258Z,90.17
2018-04-02T02:38:59.583Z,85.97
2018-04-02T02:41:28.382Z,89.13
2018-04-02T02:43:56.736Z,97.40
2018-04-02T02:46:25.031Z,95.90
2018-04-02T02:48:53.379Z,90.53
2018-04-02T02:51:22.481Z,87.73
2018-04-02T02:53:51.655Z,85.40
2018-04-02T02:56:20.831Z,80.73
2018-04-02T02:58:49.233Z,80.20
2018-04-02T03:01:17.537Z,83.10
2018-04-02T03:03:45.817Z,77.15
2018-04-02T03:06:14.092Z,85.37
2018-04-02T03:08:42.382Z,77.37
2018-04-02T03:11:10.676Z,89.60
2018-04-02T03:13:39.903Z,83.93
2018-04-02T03:16:08.326Z,108.53
2018-04-02T03:18:36.668Z,138.83
2018-04-02T03:21:06.047Z,96.37
2018-04-02T03:23:34.481Z,102.27
2018-04-02T03:26:02.782Z,99.73
2018-04-02T03:28:31.040Z,93.73
2018-04-02T03:30:59.453Z,85.32
2018-04-02T03:33:27.981Z,82.10
2018-04-02T03:35:56.531Z,88.00
2018-04-02T03:38:24.866Z,87.50
2018-04-02T03:40:53.154Z,84.63
2018-04-02T03:43:22.362Z,83.07
2018-04-02T03:45:50.847Z,81.70
2018-04-02T03:48:19.147Z,85.97
2018-04-02T03:50:47.431Z,79.37
2018-04-02T03:53:15.745Z,84.68
2018-04-02T03:55:44.555Z,77.63
2018-04-02T03:58:12.861Z,92.90
2018-04-02T04:00:41.222Z,82.67
2018-04-02T04:03:09.487Z,76.40
2018-04-02T04:05:37.776Z,83.10
2018-04-02T04:08:06.067Z,80.57
2018-04-02T04:10:34.487Z,82.00
2018-04-02T04:13:04.078Z,87.23
2018-04-02T04:15:32.385Z,105.43
2018-04-02T04:18:00.790Z,92.13
2018-04-02T04:20:29.073Z,84.30
2018-04-02T04:22:57.387Z,107.37
2018-04-02T04:25:26.603Z,93.30
2018-04-02T04:27:54.878Z,98.80
2018-04-02T04:30:23.560Z,105.30
2018-04-02T04:32:52.022Z,99.60
2018-04-02T04:35:21.136Z,92.47
2018-04-02T04:37:49.582Z,97.10
2018-04-02T04:40:17.944Z,96.53
2018-04-02T04:42:46.173Z,93.47
2018-04-02T04:45:14.447Z,88.83
2018-04-02T04:47:43.186Z,88.40
2018-04-02T04:50:11.605Z,90.33
2018-04-02T04:52:40.702Z,87.43
2018-04-02T04:55:10.278Z,83.83
2018-04-02T04:57:39.001Z,85.00
2018-04-02T05:00:07.367Z,89.93
2018-04-02T05:02:36.461Z,86.28
2018-04-02T05:05:05.543Z,86.87
2018-04-02T05:07:34.594Z,85.53
2018-04-02T05:10:02.866Z,85.43
2018-04-02T05:12:31.148Z,87.17
2018-04-02T05:15:00.071Z,89.13
2018-04-02T05:17:28.935Z,85.03
2018-04-02T05:19:57.305Z,79.90
2018-04-02T05:22:25.766Z,80.80
2018-04-02T05:24:54.098Z,83.23
2018-04-02T05:27:23.857Z,80.43
2018-04-02T05:29:52.491Z,78.13
2018-04-02T05:32:20.853Z,78.45
2018-04-02T05:34:49.156Z,75.73
2018-04-02T05:37:17.424Z,81.53
2018-04-02T05:39:45.760Z,73.20
2018-04-02T05:42:14.034Z,72.53
2018-04-02T05:44:42.307Z,74.90
2018-04-02T05:47:11.552Z,77.30
2018-04-02T05:49:40.591Z,77.87
2018-04-02T05:52:09.704Z,85.77
2018-04-02T05:54:38.033Z,79.77
2018-04-02T05:57:07.348Z,76.77
2018-04-02T05:59:35.713Z,81.00
2018-04-02T06:02:04.771Z,80.00
2018-04-02T06:04:33.052Z,81.93
2018-04-02T06:07:01.407Z,87.90
2018-04-02T06:09:29.708Z,82.00
2018-04-02T06:11:58.957Z,83.90
2018-04-02T06:14:27.286Z,83.40
2018-04-02T06:16:55.551Z,83.67
2018-04-02T06:19:25.242Z,78.15
2018-04-02T06:21:53.482Z,77.07
2018-04-02T06:24:21.874Z,80.50
2018-04-02T06:26:50.152Z,83.37
2018-04-02T06:29:18.428Z,86.97
2018-04-02T06:31:46.817Z,85.37
2018-04-02T06:34:15.266Z,86.87
2018-04-02T06:36:44.288Z,87.50
2018-04-02T06:39:12.588Z,82.88
2018-04-02T06:41:40.930Z,81.20
2018-04-02T06:44:10.212Z,90.40
2018-04-02T06:46:39.307Z,88.53
2018-04-02T06:49:08.366Z,86.33
2018-04-02T06:51:38.263Z,85.28
2018-04-02T06:54:06.597Z,84.73
2018-04-02T06:56:35.688Z,84.63
2018-04-02T06:59:03.985Z,81.37
2018-04-02T07:01:32.397Z,78.20
2018-04-02T07:04:00.677Z,80.27
2018-04-02T07:06:28.988Z,90.50
2018-04-02T07:08:58.139Z,76.37
2018-04-02T07:11:26.595Z,75.83
2018-04-02T07:13:54.926Z,76.00
2018-04-02T07:16:23.485Z,68.78
2018-04-02T07:18:51.764Z,73.33
2018-04-02T07:21:20.212Z,73.50
2018-04-02T07:23:48.503Z,71.03
2018-04-02T07:26:16.838Z,72.87
2018-04-02T07:28:45.954Z,71.93
2018-04-02T07:31:14.297Z,67.97
2018-04-02T07:33:42.994Z,60.17
2018-04-02T07:36:12.404Z,61.93
2018-04-02T07:38:40.771Z,55.17
2018-04-02T07:41:10.046Z,57.30
2018-04-02T07:43:38.386Z,53.63
2018-04-02T07:46:06.654Z,53.87
2018-04-02T07:48:35.002Z,52.38
2018-04-02T07:51:03.433Z,50.20
2018-04-02T07:53:32.863Z,51.08
2018-04-02T07:56:01.267Z,37.13
2018-04-02T07:58:30.955Z,46.20
2018-04-02T08:00:59.323Z,45.50
2018-04-02T08:03:27.635Z,44.63
2018-04-02T08:05:56.758Z,49.25
2018-04-02T08:08:25.588Z,42.77
2018-04-02T08:10:54.109Z,41.97
2018-04-02T08:13:23.228Z,50.33
2018-04-02T08:15:51.546Z,55.00
2018-04-02T08:18:19.899Z,57.67
2018-04-02T08:20:48.379Z,53.83
2018-04-02T08:23:17.025Z,41.37
2018-04-02T08:25:45.403Z,42.17
2018-04-02T08:28:13.774Z,37.40
2018-04-02T08:30:42.858Z,46.90
2018-04-02T08:33:11.398Z,42.28
2018-04-02T08:35:39.805Z,48.17
2018-04-02T08:38:08.414Z,40.20
2018-04-02T08:40:37.489Z,41.83
2018-04-02T08:43:05.848Z,38.23
2018-04-02T08:45:34.514Z,36.20
2018-04-02T08:48:02.788Z,42.10
2018-04-02T08:50:31.232Z,41.37
2018-04-02T08:52:59.695Z,45.07
2018-04-02T08:55:28.254Z,33.38
2018-04-02T08:57:56.647Z,34.93
2018-04-02T09:00:25.071Z,34.97
2018-04-02T09:02:53.384Z,33.27
2018-04-02T09:05:22.144Z,29.47
2018-04-02T09:07:50.480Z,33.78
2018-04-02T09:10:19.653Z,28.43
2018-04-02T09:12:47.985Z,28.13
2018-04-02T09:15:18.488Z,28.85
2018-04-02T09:17:47.603Z,28.37
2018-04-02T09:20:15.962Z,29.50
2018-04-02T09:22:45.259Z,28.53
2018-04-02T09:25:14.609Z,23.57
2018-04-02T09:27:42.983Z,26.10
2018-04-02T09:30:11.554Z,28.73
2018-04-02T09:32:39.913Z,22.20
2018-04-02T09:35:09.016Z,22.57
2018-04-02T09:37:37.419Z,20.47
2018-04-02T09:40:05.909Z,20.67
2018-04-02T09:42:34.479Z,19.40
2018-04-02T09:45:02.786Z,22.90
2018-04-02T09:47:31.195Z,19.20
2018-04-02T09:50:00.290Z,19.03
2018-04-02T09:52:29.491Z,19.62
2018-04-02T09:54:58.677Z,20.03
2018-04-02T09:57:27.196Z,24.87
2018-04-02T09:59:55.711Z,21.80
2018-04-02T10:02:24.238Z,21.47
2018-04-02T10:04:56.571Z,20.57
2018-04-02T10:07:24.901Z,21.50
2018-04-02T10:09:53.210Z,18.57
2018-04-02T10:12:21.484Z,19.57
2018-04-02T10:14:49.834Z,18.15
2018-04-02T10:17:18.176Z,20.70
2018-04-02T10:19:46.535Z,19.43
2018-04-02T10:22:14.930Z,18.45
2018-04-02T10:24:43.370Z,14.87
2018-04-02T10:27:11.813Z,16.03
2018-04-02T10:29:40.528Z,14.77
2018-04-02T10:32:08.833Z,13.87
2018-04-02T10:34:37.295Z,15.37
2018-04-02T10:37:05.770Z,15.43
2018-04-02T10:39:34.179Z,16.70
2018-04-02T10:42:02.670Z,17.93
2018-04-02T10:44:31.291Z,14.77
2018-04-02T10:46:59.563Z,14.70
2018-04-02T10:49:28.975Z,12.90
2018-04-02T10:51:58.215Z,12.63
2018-04-02T10:54:26.520Z,14.02
2018-04-02T10:56:55.533Z,11.50
2018-04-02T10:59:24.778Z,13.52
2018-04-02T11:01:54.270Z,16.50
2018-04-02T11:04:22.566Z,14.20
2018-04-02T11:06:50.988Z,12.32
2018-04-02T11:09:20.232Z,11.70
2018-04-02T11:11:50.344Z,12.90
2018-04-02T11:14:18.976Z,17.50
2018-04-02T11:16:48.175Z,9.33
2018-04-02T11:19:16.546Z,10.93
2018-04-02T11:21:45.771Z,12.07
2018-04-02T11:24:14.115Z,13.13
2018-04-02T11:26:42.424Z,10.90
2018-04-02T11:29:10.788Z,8.83
2018-04-02T11:31:40.001Z,10.97
2018-04-02T11:34:09.083Z,11.70
2018-04-02T11:36:39.151Z,9.27
2018-04-02T11:39:07.520Z,11.20
2018-04-02T11:41:35.896Z,12.40
2018-04-02T11:44:04.267Z,10.77
2018-04-02T11:46:32.616Z,12.40
2018-04-02T11:49:01.954Z,13.20
2018-04-02T11:51:30.560Z,11.18
2018-04-02T11:53:58.920Z,13.60
2018-04-02T11:56:27.230Z,12.52
2018-04-02T11:58:55.629Z,13.07
2018-04-02T12:01:24.705Z,9.87
2018-04-02T12:03:53.114Z,10.90
2018-04-02T12:06:21.566Z,9.60
2018-04-02T12:08:50.416Z,10.30
2018-04-02T12:11:18.695Z,8.40
2018-04-02T12:13:47.098Z,7.33
2018-04-02T12:16:15.549Z,11.63
2018-04-02T12:18:44.178Z,10.15
2018-04-02T12:21:12.698Z,7.27
2018-04-02T12:23:41.206Z,7.25
2018-04-02T12:26:09.728Z,7.43
2018-04-02T12:28:38.176Z,8.17
2018-04-02T12:31:06.496Z,6.70
2018-04-02T12:33:35.980Z,7.80
2018-04-02T12:36:04.675Z,6.20
2018-04-02T12:38:35.003Z,6.82
2018-04-02T12:41:03.436Z,8.07
2018-04-02T12:43:31.744Z,10.40
2018-04-02T12:46:00.269Z,6.30
2018-04-02T12:48:29.409Z,7.93
2018-04-02T12:50:58.196Z,5.47
2018-04-02T12:53:26.573Z,5.70
2018-04-02T12:55:54.910Z,6.40
2018-04-02T12:58:23.970Z,6.17
2018-04-02T13:00:52.258Z,7.30
2018-04-02T13:03:20.663Z,5.53
2018-04-02T13:05:49.057Z,4.80
2018-04-02T13:08:17.684Z,6.07
2018-04-02T13:10:48.074Z,5.20
2018-04-02T13:13:16.454Z,5.87
2018-04-02T13:15:44.782Z,4.70
2018-04-02T13:18:13.078Z,7.43
2018-04-02T13:20:42.189Z,4.77
2018-04-02T13:23:10.554Z,5.33
2018-04-02T13:25:42.274Z,5.10
2018-04-02T13:28:11.842Z,3.73
2018-04-02T13:30:42.447Z,3.50
2018-04-02T13:33:11.552Z,3.00
2018-04-02T13:35:39.879Z,4.70
2018-04-02T13:38:09.255Z,3.75
2018-04-02T13:40:38.017Z,3.57
2018-04-02T13:43:06.440Z,3.92
2018-04-02T13:45:34.964Z,5.73
2018-04-02T13:48:04.108Z,3.60
2018-04-02T13:50:32.507Z,4.90
2018-04-02T13:53:00.842Z,4.10
2018-04-02T13:55:29.340Z,5.27
2018-04-02T13:57:57.700Z,2.97
2018-04-02T14:00:26.340Z,3.17
2018-04-02T14:02:54.869Z,6.23
2018-04-02T14:05:23.266Z,4.93
2018-04-02T14:07:51.687Z,6.57
2018-04-02T14:10:20.296Z,4.50
2018-04-02T14:12:48.708Z,3.73
2018-04-02T14:15:17.209Z,5.43
2018-04-02T14:17:45.665Z,4.13
2018-04-02T14:20:14.261Z,6.60
2018-04-02T14:22:42.636Z,4.10
2018-04-02T14:25:11.046Z,2.60
2018-04-02T14:27:39.483Z,5.63
2018-04-02T14:30:07.887Z,2.53
2018-04-02T14:32:36.301Z,3.30
2018-04-02T14:35:05.462Z,6.00
2018-04-02T14:37:33.780Z,5.60
2018-04-02T14:40:02.917Z,6.30
2018-04-02T14:42:31.335Z,6.50
2018-04-02T14:45:00.797Z,4.32
2018-04-02T14:47:29.435Z,4.67
2018-04-02T14:49:57.864Z,4.30
2018-04-02T14:52:26.605Z,7.47
2018-04-02T14:54:55.786Z,4.23
2018-04-02T14:57:24.359Z,3.43
2018-04-02T14:59:52.799Z,4.07
2018-04-02T15:02:21.427Z,4.03
2018-04-02T15:04:51.302Z,4.65
2018-04-02T15:07:19.674Z,3.90
2018-04-02T15:09:48.878Z,4.27
2018-04-02T15:12:17.389Z,5.07
2018-04-02T15:14:45.861Z,3.57
2018-04-02T15:17:14.743Z,5.83
2018-04-02T15:19:43.103Z,7.50
2018-04-02T15:22:11.564Z,3.53
2018-04-02T15:24:40.716Z,5.70
2018-04-02T15:27:09.038Z,3.37
2018-04-02T15:29:38.479Z,5.43
2018-04-02T15:32:07.174Z,6.10
2018-04-02T15:34:35.535Z,4.20
2018-04-02T15:37:03.857Z,5.12
2018-04-02T15:39:32.219Z,4.73
2018-04-02T15:42:00.551Z,3.97
2018-04-02T15:44:28.964Z,4.73
2018-04-02T15:46:57.389Z,5.00
2018-04-02T15:49:27.844Z,6.20
2018-04-02T15:51:56.753Z,5.30
2018-04-02T15:54:25.461Z,5.77
2018-04-02T15:56:54.944Z,5.67
2018-04-02T15:59:23.308Z,6.87
2018-04-02T16:01:51.776Z,4.77
2018-04-02T16:04:20.389Z,4.60
2018-04-02T16:06:48.885Z,5.30
2018-04-02T16:09:17.309Z,3.60
2018-04-02T16:11:46.525Z,4.80
2018-04-02T16:14:14.856Z,3.80
2018-04-02T16:16:44.083Z,3.40
2018-04-02T16:19:13.631Z,6.43
2018-04-02T16:21:42.102Z,5.00
2018-04-02T16:24:10.670Z,3.70
2018-04-02T16:26:39.066Z,3.17
2018-04-02T16:29:07.539Z,4.17
2018-04-02T16:31:36.417Z,2.20
2018-04-02T16:34:04.804Z,3.77
2018-04-02T16:36:33.805Z,2.70
2018-04-02T16:39:03.460Z,10.50
2018-04-02T16:41:31.825Z,6.25
2018-04-02T16:44:00.226Z,5.17
2018-04-02T16:46:29.459Z,4.73
2018-04-02T16:48:58.055Z,3.00
2018-04-02T16:51:26.642Z,3.77
2018-04-02T16:53:55.157Z,4.27
2018-04-02T16:56:26.176Z,4.05
2018-04-02T16:58:55.265Z,5.00
2018-04-02T17:01:23.754Z,4.20
2018-04-02T17:03:52.258Z,4.50
2018-04-02T17:06:21.388Z,4.90
2018-04-02T17:08:49.879Z,6.50
2018-04-02T17:11:18.514Z,4.95
2018-04-02T17:13:47.737Z,2.87
2018-04-02T17:16:16.992Z,4.47
2018-04-02T17:18:45.412Z,3.42
2018-04-02T17:21:14.688Z,3.58
2018-04-02T17:23:43.000Z,5.50
2018-04-02T17:26:11.491Z,9.97
2018-04-02T17:28:39.903Z,7.83
2018-04-02T17:31:08.335Z,3.63
2018-04-02T17:33:39.196Z,4.07
2018-04-02T17:36:07.926Z,3.57
2018-04-02T17:38:36.722Z,4.90
2018-04-02T17:41:05.854Z,2.90
2018-04-02T17:43:34.682Z,4.15
2018-04-02T17:46:04.055Z,4.43
2018-04-02T17:48:32.663Z,4.90
2018-04-02T17:51:01.190Z,4.90
2018-04-02T17:53:30.218Z,5.17
2018-04-02T17:55:59.799Z,8.67
2018-04-02T17:58:28.330Z,5.60
2018-04-02T18:00:56.792Z,4.73
2018-04-02T18:03:25.353Z,6.23
2018-04-02T18:05:53.772Z,3.17
2018-04-02T18:08:22.338Z,4.27
2018-04-02T18:10:52.110Z,4.37
2018-04-02T18:13:20.555Z,5.63
2018-04-02T18:15:48.967Z,4.27
2018-04-02T18:18:17.545Z,5.05
2018-04-02T18:20:46.843Z,5.57
2018-04-02T18:23:16.180Z,6.40
2018-04-02T18:25:44.525Z,6.80
2018-04-02T18:28:13.823Z,6.68
2018-04-02T18:30:42.926Z,3.95
2018-04-02T18:33:12.882Z,4.63
2018-04-02T18:35:42.275Z,3.90
2018-04-02T18:38:11.828Z,4.33
2018-04-02T18:40:40.213Z,4.00
2018-04-02T18:43:09.353Z,4.53
2018-04-02T18:45:37.718Z,7.13
2018-04-02T18:48:06.103Z,3.43
2018-04-02T18:50:34.597Z,5.67
2018-04-02T18:53:03.008Z,5.27
2018-04-02T18:55:31.380Z,8.77
2018-04-02T18:57:59.725Z,9.73
2018-04-02T19:00:28.196Z,4.78
2018-04-02T19:02:56.789Z,5.72
2018-04-02T19:05:25.328Z,4.30
2018-04-02T19:07:55.570Z,5.05
2018-04-02T19:10:24.069Z,6.20
2018-04-02T19:12:52.410Z,4.47
2018-04-02T19:15:21.646Z,6.15
2018-04-02T19:17:50.090Z,5.97
2018-04-02T19:20:19.403Z,6.27
2018-04-02T19:22:48.646Z,6.73
2018-04-02T19:25:17.047Z,7.67
2018-04-02T19:27:45.462Z,8.43
2018-04-02T19:30:13.906Z,6.50
2018-04-02T19:32:42.218Z,6.85
2018-04-02T19:35:10.751Z,7.33
2018-04-02T19:37:39.128Z,6.63
2018-04-02T19:40:07.561Z,8.73
2018-04-02T19:42:36.839Z,7.57
2018-04-02T19:45:05.281Z,10.23
2018-04-02T19:47:33.873Z,8.00
2018-04-02T19:50:02.230Z,8.05
2018-04-02T19:52:30.660Z,7.47
2018-04-02T19:54:59.008Z,8.18
2018-04-02T19:57:27.583Z,8.53
2018-04-02T19:59:56.123Z,6.78
2018-04-02T20:02:25.385Z,6.20
2018-04-02T20:04:53.900Z,6.67
2018-04-02T20:07:22.999Z,6.73
2018-04-02T20:09:53.862Z,4.90
2018-04-02T20:12:24.072Z,5.82
2018-04-02T20:14:52.683Z,4.43
2018-04-02T20:17:21.123Z,4.83
2018-04-02T20:19:50.291Z,4.00
2018-04-02T20:22:18.635Z,6.43
2018-04-02T20:24:46.982Z,6.97
2018-04-02T20:27:15.477Z,3.97
2018-04-02T20:29:43.820Z,5.03
2018-04-02T20:32:13.158Z,5.62
2018-04-02T20:34:41.484Z,4.73
2018-04-02T20:37:09.843Z,5.95
2018-04-02T20:39:38.176Z,5.53
2018-04-02T20:42:06.706Z,9.07
2018-04-02T20:44:36.211Z,5.20
2018-04-02T20:47:04.581Z,6.03
2018-04-02T20:49:33.023Z,5.27
2018-04-02T20:52:01.506Z,3.07
2018-04-02T20:54:30.107Z,6.20
2018-04-02T20:56:58.759Z,4.50
2018-04-02T20:59:27.835Z,4.72
2018-04-02T21:04:31.694Z,3.93
2018-04-02T21:07:00.188Z,3.27
2018-04-02T21:09:28.555Z,7.25
2018-04-02T21:12:00.735Z,4.30
2018-04-02T21:14:29.144Z,2.63
2018-04-02T21:16:57.690Z,3.63
2018-04-02T21:19:26.064Z,5.43
2018-04-02T21:21:54.633Z,3.27
2018-04-02T21:24:23.032Z,5.63
2018-04-02T21:26:51.492Z,3.73
2018-04-02T21:29:19.974Z,2.73
2018-04-02T21:31:48.507Z,2.90
2018-04-02T21:34:16.920Z,3.80
2018-04-02T21:36:46.044Z,2.10
2018-04-02T21:39:14.581Z,6.10
2018-04-02T21:41:43.088Z,4.80
2018-04-02T21:44:12.217Z,4.07
2018-04-02T21:46:40.595Z,3.72
2018-04-02T21:49:09.373Z,5.70
2018-04-02T21:51:37.700Z,5.80
2018-04-02T21:54:06.986Z,4.20
2018-04-02T21:56:36.871Z,3.47
2018-04-02T21:59:05.198Z,4.40
2018-04-02T22:01:33.571Z,3.33
2018-04-02T22:04:02.009Z,3.53
2018-04-02T22:06:48.069Z,4.17
2018-04-02T22:09:17.270Z,3.30
2018-04-02T22:11:45.676Z,4.63
2018-04-02T22:14:14.065Z,5.53
2018-04-02T22:16:42.483Z,1.97
2018-04-02T22:19:10.788Z,3.67
2018-04-02T22:21:39.088Z,4.13
2018-04-02T22:24:07.504Z,5.33
2018-04-02T22:26:35.917Z,3.63
2018-04-02T22:29:04.218Z,4.65
2018-04-02T22:31:32.717Z,2.00
2018-04-02T22:34:01.016Z,4.43
2018-04-02T22:36:29.341Z,3.87
2018-04-02T22:38:57.663Z,3.83
2018-04-02T22:41:25.976Z,4.07
2018-04-02T22:43:56.146Z,2.50
2018-04-02T22:46:24.432Z,2.23
2018-04-02T22:48:52.888Z,3.00
2018-04-02T22:51:21.422Z,3.70
2018-04-02T22:53:49.848Z,2.37
2018-04-02T22:56:18.281Z,3.67
2018-04-02T22:58:46.585Z,2.93
2018-04-02T23:01:14.901Z,3.30
2018-04-02T23:03:43.266Z,4.43
2018-04-02T23:06:11.786Z,2.40
2018-04-02T23:08:40.098Z,2.13
2018-04-02T23:11:08.464Z,2.80
2018-04-02T23:13:38.814Z,4.20
2018-04-02T23:16:07.214Z,5.30
2018-04-02T23:18:35.519Z,3.97
2018-04-02T23:21:05.161Z,2.50
2018-04-02T23:23:33.479Z,3.47
2018-04-02T23:26:01.999Z,4.50
2018-04-02T23:28:31.128Z,3.00
2018-04-02T23:30:59.411Z,2.40
2018-04-02T23:33:27.792Z,3.33
2018-04-02T23:35:56.231Z,2.73
2018-04-02T23:38:25.288Z,3.55
2018-04-02T23:40:53.626Z,5.70
2018-04-02T23:43:21.976Z,3.03
2018-04-02T23:45:51.092Z,3.30
2018-04-02T23:48:20.282Z,5.07
2018-04-02T23:50:49.474Z,2.57
2018-04-02T23:53:18.690Z,3.03
2018-04-02T23:55:48.410Z,2.93
2018-04-02T23:58:16.859Z,3.70
